Bolivia, North Carolina
Current Conditions -  °F | °C
As of 6:55 PM on Monday 22 Dec 2014 (Local Time) from KSUT Reporting Station
Overcast Overcast  
Wind Chill: 44°   Ceiling: 400
Heat Index: 46°   Visibility: 7mi
Dew Point: 45°   Wind: 5mph
Humidity: 97%   Direction: 10°N
Pressure: 30.02"   Gusts: NA
Location:  34.07°N, 78.15°W
Report Text: KSUT 222355Z AUTO 01004KT 7SM OVC004 08/07 A3002 RMK AO2 P0001 60008 T00780074 10095 20077
Loading
Personal Weather Stations






























Interactive Weather Map New forecast layout! Learn more

10-Day Weather Forecast

Advertisements
Track Severe Weather on mobile